sensor_id;sensor_type;location;lat;lon;timestamp;pressure;altitude;pressure_sealevel;temperature;humidity
65376;BME280;51976;47.332;9.404;2023-04-05T00:01:04;92918.50;;;-0.59;62.15
65376;BME280;51976;47.332;9.404;2023-04-05T00:03:32;92911.41;;;-0.65;62.04
65376;BME280;51976;47.332;9.404;2023-04-05T00:05:57;92912.44;;;-0.66;62.25
65376;BME280;51976;47.332;9.404;2023-04-05T00:08:23;92911.91;;;-0.50;62.02
65376;BME280;51976;47.332;9.404;2023-04-05T00:10:50;92909.78;;;-0.66;62.19
65376;BME280;51976;47.332;9.404;2023-04-05T00:13:16;92911.88;;;-0.75;62.73
65376;BME280;51976;47.332;9.404;2023-04-05T00:15:42;92896.47;;;-0.84;62.76
65376;BME280;51976;47.332;9.404;2023-04-05T00:18:07;92918.91;;;-1.00;63.57
65376;BME280;51976;47.332;9.404;2023-04-05T00:20:32;92879.69;;;-1.10;63.34
65376;BME280;51976;47.332;9.404;2023-04-05T00:23:01;92920.53;;;-0.99;63.48
65376;BME280;51976;47.332;9.404;2023-04-05T00:25:26;92895.19;;;-1.20;63.80
65376;BME280;51976;47.332;9.404;2023-04-05T00:27:52;92900.41;;;-1.07;63.73
65376;BME280;51976;47.332;9.404;2023-04-05T00:30:17;92910.06;;;-0.81;63.24
65376;BME280;51976;47.332;9.404;2023-04-05T00:32:48;92894.75;;;-0.72;63.00
65376;BME280;51976;47.332;9.404;2023-04-05T00:35:14;92898.28;;;-0.85;63.01
65376;BME280;51976;47.332;9.404;2023-04-05T00:37:39;92903.75;;;-0.80;63.15
65376;BME280;51976;47.332;9.404;2023-04-05T00:40:06;92876.91;;;-0.83;63.03
65376;BME280;51976;47.332;9.404;2023-04-05T00:42:31;92890.84;;;-0.63;62.59
65376;BME280;51976;47.332;9.404;2023-04-05T00:44:56;92882.78;;;-0.50;62.42
65376;BME280;51976;47.332;9.404;2023-04-05T00:47:22;92882.78;;;-0.50;62.36
65376;BME280;51976;47.332;9.404;2023-04-05T00:49:48;92874.59;;;-0.73;63.08
65376;BME280;51976;47.332;9.404;2023-04-05T00:52:14;92887.94;;;-0.55;62.59
65376;BME280;51976;47.332;9.404;2023-04-05T00:54:40;92883.31;;;-0.66;62.86
65376;BME280;51976;47.332;9.404;2023-04-05T00:57:07;92882.53;;;-0.73;63.13
65376;BME280;51976;47.332;9.404;2023-04-05T00:59:33;92876.00;;;-0.71;63.02
65376;BME280;51976;47.332;9.404;2023-04-05T01:02:12;92872.38;;;-0.76;63.01
65376;BME280;51976;47.332;9.404;2023-04-05T01:04:43;92861.59;;;-0.81;62.95
65376;BME280;51976;47.332;9.404;2023-04-05T01:07:24;92859.66;;;-0.92;62.88
65376;BME280;51976;47.332;9.404;2023-04-05T01:09:57;92869.78;;;-0.83;62.91
65376;BME280;51976;47.332;9.404;2023-04-05T01:12:27;92861.78;;;-0.76;62.61
65376;BME280;51976;47.332;9.404;2023-04-05T01:14:56;92830.72;;;-0.87;62.44
65376;BME280;51976;47.332;9.404;2023-04-05T01:17:23;92853.59;;;-0.68;62.33
65376;BME280;51976;47.332;9.404;2023-04-05T01:19:57;92850.28;;;-0.88;62.70
65376;BME280;51976;47.332;9.404;2023-04-05T01:22:51;92852.91;;;-0.88;63.00
65376;BME280;51976;47.332;9.404;2023-04-05T01:25:48;92850.50;;;-0.96;63.15
65376;BME280;51976;47.332;9.404;2023-04-05T01:28:48;92836.06;;;-0.94;63.23
65376;BME280;51976;47.332;9.404;2023-04-05T01:31:36;92843.00;;;-0.99;63.54
65376;BME280;51976;47.332;9.404;2023-04-05T01:34:32;92836.97;;;-1.13;63.91
65376;BME280;51976;47.332;9.404;2023-04-05T01:37:02;92837.59;;;-1.18;64.43
65376;BME280;51976;47.332;9.404;2023-04-05T01:39:30;92820.72;;;-1.17;64.61
65376;BME280;51976;47.332;9.404;2023-04-05T01:41:59;92837.19;;;-1.15;64.92
65376;BME280;51976;47.332;9.404;2023-04-05T01:44:25;92835.69;;;-1.04;64.72
65376;BME280;51976;47.332;9.404;2023-04-05T01:46:51;92832.94;;;-0.84;64.21
65376;BME280;51976;47.332;9.404;2023-04-05T01:49:16;92829.38;;;-0.72;63.73
65376;BME280;51976;47.332;9.404;2023-04-05T01:51:41;92833.38;;;-0.87;63.93
65376;BME280;51976;47.332;9.404;2023-04-05T01:54:07;92833.16;;;-0.86;63.88
65376;BME280;51976;47.332;9.404;2023-04-05T01:56:33;92825.94;;;-0.72;63.54
65376;BME280;51976;47.332;9.404;2023-04-05T01:58:58;92830.78;;;-0.69;63.40
65376;BME280;51976;47.332;9.404;2023-04-05T02:01:24;92827.97;;;-0.74;63.28
65376;BME280;51976;47.332;9.404;2023-04-05T02:03:49;92795.44;;;-0.81;63.47
65376;BME280;51976;47.332;9.404;2023-04-05T02:06:15;92819.03;;;-0.80;63.70
65376;BME280;51976;47.332;9.404;2023-04-05T02:08:40;92822.22;;;-0.96;64.06
65376;BME280;51976;47.332;9.404;2023-04-05T02:11:06;92812.44;;;-0.95;64.12
65376;BME280;51976;47.332;9.404;2023-04-05T02:13:31;92816.75;;;-1.01;64.65
65376;BME280;51976;47.332;9.404;2023-04-05T02:15:56;92812.69;;;-1.04;64.50
65376;BME280;51976;47.332;9.404;2023-04-05T02:18:22;92812.06;;;-0.99;64.69
65376;BME280;51976;47.332;9.404;2023-04-05T02:21:00;92808.13;;;-0.90;63.99
65376;BME280;51976;47.332;9.404;2023-04-05T02:23:26;92810.56;;;-0.88;63.89
65376;BME280;51976;47.332;9.404;2023-04-05T02:25:55;92804.50;;;-0.95;64.05
65376;BME280;51976;47.332;9.404;2023-04-05T02:28:20;92803.03;;;-0.85;63.95
65376;BME280;51976;47.332;9.404;2023-04-05T02:30:45;92809.75;;;-0.89;64.06
65376;BME280;51976;47.332;9.404;2023-04-05T02:33:11;92809.88;;;-0.77;63.60
65376;BME280;51976;47.332;9.404;2023-04-05T02:35:36;92807.22;;;-0.77;63.54
65376;BME280;51976;47.332;9.404;2023-04-05T02:38:03;92752.41;;;-1.26;63.59
65376;BME280;51976;47.332;9.404;2023-04-05T02:40:29;92801.78;;;-1.14;64.07
65376;BME280;51976;47.332;9.404;2023-04-05T02:42:54;92797.25;;;-1.07;63.91
65376;BME280;51976;47.332;9.404;2023-04-05T02:45:20;92782.25;;;-1.13;63.78
65376;BME280;51976;47.332;9.404;2023-04-05T02:47:45;92795.63;;;-1.08;63.90
65376;BME280;51976;47.332;9.404;2023-04-05T02:50:11;92790.84;;;-0.92;63.64
65376;BME280;51976;47.332;9.404;2023-04-05T02:52:36;92792.50;;;-1.29;64.17
65376;BME280;51976;47.332;9.404;2023-04-05T02:55:04;92789.97;;;-1.49;64.71
65376;BME280;51976;47.332;9.404;2023-04-05T02:57:30;92783.03;;;-1.50;64.75
65376;BME280;51976;47.332;9.404;2023-04-05T02:59:55;92784.47;;;-1.48;64.58
65376;BME280;51976;47.332;9.404;2023-04-05T03:02:21;92782.41;;;-1.39;64.64
65376;BME280;51976;47.332;9.404;2023-04-05T03:04:46;92786.00;;;-1.33;64.18
65376;BME280;51976;47.332;9.404;2023-04-05T03:07:12;92770.56;;;-1.37;64.03
65376;BME280;51976;47.332;9.404;2023-04-05T03:09:43;92779.25;;;-1.23;63.89
65376;BME280;51976;47.332;9.404;2023-04-05T03:12:10;92675.97;;;-2.04;64.02
65376;BME280;51976;47.332;9.404;2023-04-05T03:14:37;92770.81;;;-1.45;64.37
65376;BME280;51976;47.332;9.404;2023-04-05T03:17:02;92774.59;;;-1.27;64.08
65376;BME280;51976;47.332;9.404;2023-04-05T03:19:28;92774.88;;;-1.42;63.23
65376;BME280;51976;47.332;9.404;2023-04-05T03:21:54;92772.47;;;-1.95;64.83
65376;BME280;51976;47.332;9.404;2023-04-05T03:24:19;92778.25;;;-1.66;64.42
65376;BME280;51976;47.332;9.404;2023-04-05T03:26:46;92772.88;;;-1.53;64.20
65376;BME280;51976;47.332;9.404;2023-04-05T03:29:12;92761.00;;;-1.76;64.14
65376;BME280;51976;47.332;9.404;2023-04-05T03:31:38;92774.50;;;-1.97;64.91
65376;BME280;51976;47.332;9.404;2023-04-05T03:34:03;92769.16;;;-1.84;65.09
65376;BME280;51976;47.332;9.404;2023-04-05T03:36:29;92766.78;;;-1.92;65.43
65376;BME280;51976;47.332;9.404;2023-04-05T03:38:55;92770.25;;;-1.98;65.74
65376;BME280;51976;47.332;9.404;2023-04-05T03:41:20;92761.50;;;-1.98;65.98
65376;BME280;51976;47.332;9.404;2023-04-05T03:43:46;92746.59;;;-1.80;65.64
65376;BME280;51976;47.332;9.404;2023-04-05T03:46:13;92754.19;;;-1.58;64.99
65376;BME280;51976;47.332;9.404;2023-04-05T03:48:38;92754.59;;;-1.55;64.69
65376;BME280;51976;47.332;9.404;2023-04-05T03:51:04;92750.50;;;-1.51;64.39
65376;BME280;51976;47.332;9.404;2023-04-05T03:53:30;92742.97;;;-1.47;64.08
65376;BME280;51976;47.332;9.404;2023-04-05T03:55:55;92757.94;;;-1.73;64.74
65376;BME280;51976;47.332;9.404;2023-04-05T03:58:21;92752.44;;;-1.64;64.65
65376;BME280;51976;47.332;9.404;2023-04-05T04:00:46;92750.00;;;-1.66;64.72
65376;BME280;51976;47.332;9.404;2023-04-05T04:03:13;92746.53;;;-1.66;64.54
65376;BME280;51976;47.332;9.404;2023-04-05T04:05:39;92752.16;;;-1.94;65.25
65376;BME280;51976;47.332;9.404;2023-04-05T04:08:05;92749.25;;;-1.86;65.11
65376;BME280;51976;47.332;9.404;2023-04-05T04:10:30;92751.56;;;-2.03;65.20
65376;BME280;51976;47.332;9.404;2023-04-05T04:12:56;92752.91;;;-1.87;65.09
65376;BME280;51976;47.332;9.404;2023-04-05T04:15:21;92748.63;;;-1.82;64.63
65376;BME280;51976;47.332;9.404;2023-04-05T04:17:46;92739.06;;;-1.83;64.30
65376;BME280;51976;47.332;9.404;2023-04-05T04:20:12;92755.31;;;-1.79;64.61
65376;BME280;51976;47.332;9.404;2023-04-05T04:22:38;92752.16;;;-1.56;64.21
65376;BME280;51976;47.332;9.404;2023-04-05T04:25:06;92757.22;;;-1.48;63.78
65376;BME280;51976;47.332;9.404;2023-04-05T04:27:35;92746.25;;;-1.52;63.88
65376;BME280;51976;47.332;9.404;2023-04-05T04:30:01;92747.97;;;-1.71;64.00
65376;BME280;51976;47.332;9.404;2023-04-05T04:32:29;92751.88;;;-1.86;64.66
65376;BME280;51976;47.332;9.404;2023-04-05T04:35:14;92751.88;;;-1.80;64.54
65376;BME280;51976;47.332;9.404;2023-04-05T04:37:44;92751.69;;;-1.91;64.33
65376;BME280;51976;47.332;9.404;2023-04-05T04:40:11;92761.00;;;-1.76;64.29
65376;BME280;51976;47.332;9.404;2023-04-05T04:42:42;92759.97;;;-1.75;64.09
65376;BME280;51976;47.332;9.404;2023-04-05T04:45:08;92761.75;;;-1.62;63.88
65376;BME280;51976;47.332;9.404;2023-04-05T04:47:35;92733.44;;;-1.93;64.04
65376;BME280;51976;47.332;9.404;2023-04-05T04:50:02;92775.03;;;-1.82;64.05
65376;BME280;51976;47.332;9.404;2023-04-05T04:52:29;92767.91;;;-1.75;64.10
65376;BME280;51976;47.332;9.404;2023-04-05T04:54:54;92768.94;;;-1.76;63.89
65376;BME280;51976;47.332;9.404;2023-04-05T04:57:19;92763.25;;;-1.79;63.76
65376;BME280;51976;47.332;9.404;2023-04-05T04:59:45;92764.88;;;-1.85;63.82
65376;BME280;51976;47.332;9.404;2023-04-05T05:02:10;92761.03;;;-1.89;64.03
65376;BME280;51976;47.332;9.404;2023-04-05T05:04:35;92768.22;;;-2.09;64.68
65376;BME280;51976;47.332;9.404;2023-04-05T05:07:01;92656.94;;;-2.77;64.70
65376;BME280;51976;47.332;9.404;2023-04-05T05:09:26;92769.63;;;-2.00;64.61
65376;BME280;51976;47.332;9.404;2023-04-05T05:11:52;92771.25;;;-1.92;64.15
65376;BME280;51976;47.332;9.404;2023-04-05T05:14:17;92763.53;;;-1.94;63.68
65376;BME280;51976;47.332;9.404;2023-04-05T05:16:42;92770.84;;;-2.02;63.86
65376;BME280;51976;47.332;9.404;2023-04-05T05:19:08;92706.97;;;-2.44;63.97
65376;BME280;51976;47.332;9.404;2023-04-05T05:21:34;92764.97;;;-1.98;63.87
65376;BME280;51976;47.332;9.404;2023-04-05T05:24:00;92757.38;;;-1.88;63.47
65376;BME280;51976;47.332;9.404;2023-04-05T05:26:26;92745.66;;;-1.98;63.41
65376;BME280;51976;47.332;9.404;2023-04-05T05:28:51;92765.69;;;-1.84;63.38
65376;BME280;51976;47.332;9.404;2023-04-05T05:31:17;92768.75;;;-1.81;63.44
65376;BME280;51976;47.332;9.404;2023-04-05T05:33:42;92775.66;;;-1.86;63.39
65376;BME280;51976;47.332;9.404;2023-04-05T05:36:11;92759.81;;;-1.86;63.44
65376;BME280;51976;47.332;9.404;2023-04-05T05:38:37;92760.59;;;-1.79;63.18
65376;BME280;51976;47.332;9.404;2023-04-05T05:41:02;92751.63;;;-1.72;63.12
65376;BME280;51976;47.332;9.404;2023-04-05T05:43:28;92761.41;;;-1.72;63.20
65376;BME280;51976;47.332;9.404;2023-04-05T05:45:53;92764.59;;;-1.63;63.16
65376;BME280;51976;47.332;9.404;2023-04-05T05:48:18;92765.03;;;-1.66;62.94
65376;BME280;51976;47.332;9.404;2023-04-05T05:50:44;92768.28;;;-1.64;63.48
65376;BME280;51976;47.332;9.404;2023-04-05T05:53:12;92758.56;;;-1.77;63.64
65376;BME280;51976;47.332;9.404;2023-04-05T05:55:38;92756.00;;;-1.97;64.19
65376;BME280;51976;47.332;9.404;2023-04-05T05:58:03;92754.31;;;-1.78;63.82
65376;BME280;51976;47.332;9.404;2023-04-05T06:00:29;92759.69;;;-1.60;63.44
65376;BME280;51976;47.332;9.404;2023-04-05T06:02:54;92758.47;;;-1.57;63.09
65376;BME280;51976;47.332;9.404;2023-04-05T06:05:20;92683.72;;;-2.16;62.89
65376;BME280;51976;47.332;9.404;2023-04-05T06:07:45;92760.16;;;-1.69;63.25
65376;BME280;51976;47.332;9.404;2023-04-05T06:10:11;92704.13;;;-1.85;62.83
65376;BME280;51976;47.332;9.404;2023-04-05T06:12:37;92765.63;;;-1.26;62.39
65376;BME280;51976;47.332;9.404;2023-04-05T06:15:03;92761.88;;;-1.12;61.97
65376;BME280;51976;47.332;9.404;2023-04-05T06:17:29;92718.59;;;-1.18;61.71
65376;BME280;51976;47.332;9.404;2023-04-05T06:19:54;92768.75;;;-0.80;61.36
65376;BME280;51976;47.332;9.404;2023-04-05T06:22:19;92762.19;;;-0.71;61.13
65376;BME280;51976;47.332;9.404;2023-04-05T06:24:47;92773.41;;;-0.75;61.10
65376;BME280;51976;47.332;9.404;2023-04-05T06:27:12;92775.13;;;-0.56;60.78
65376;BME280;51976;47.332;9.404;2023-04-05T06:29:38;92770.06;;;-0.39;60.41
65376;BME280;51976;47.332;9.404;2023-04-05T06:32:04;92769.44;;;-0.16;60.15
65376;BME280;51976;47.332;9.404;2023-04-05T06:34:30;92763.84;;;-0.08;59.40
65376;BME280;51976;47.332;9.404;2023-04-05T06:36:56;92768.13;;;0.11;58.90
65376;BME280;51976;47.332;9.404;2023-04-05T06:39:21;92763.28;;;0.26;58.50
65376;BME280;51976;47.332;9.404;2023-04-05T06:41:46;92763.44;;;0.61;57.80
65376;BME280;51976;47.332;9.404;2023-04-05T06:44:12;92747.16;;;0.88;56.76
65376;BME280;51976;47.332;9.404;2023-04-05T06:46:37;92763.53;;;0.85;56.85
65376;BME280;51976;47.332;9.404;2023-04-05T06:49:03;92760.19;;;1.19;56.30
65376;BME280;51976;47.332;9.404;2023-04-05T06:51:28;92760.50;;;1.11;55.77
65376;BME280;51976;47.332;9.404;2023-04-05T06:53:54;92751.97;;;1.62;55.12
65376;BME280;51976;47.332;9.404;2023-04-05T06:56:20;92697.66;;;1.35;54.54
65376;BME280;51976;47.332;9.404;2023-04-05T06:58:46;92756.00;;;1.53;55.09
65376;BME280;51976;47.332;9.404;2023-04-05T07:01:11;92754.94;;;1.54;55.22
65376;BME280;51976;47.332;9.404;2023-04-05T07:03:36;92759.22;;;1.67;54.89
65376;BME280;51976;47.332;9.404;2023-04-05T07:06:02;92752.66;;;2.16;53.86
65376;BME280;51976;47.332;9.404;2023-04-05T07:08:31;92752.53;;;2.63;52.97
65376;BME280;51976;47.332;9.404;2023-04-05T07:10:57;92728.25;;;2.88;51.95
65376;BME280;51976;47.332;9.404;2023-04-05T07:13:23;92754.50;;;2.67;52.50
65376;BME280;51976;47.332;9.404;2023-04-05T07:15:50;92740.56;;;2.77;52.00
65376;BME280;51976;47.332;9.404;2023-04-05T07:18:16;92760.53;;;2.91;52.26
65376;BME280;51976;47.332;9.404;2023-04-05T07:20:43;92748.91;;;2.29;53.49
65376;BME280;51976;47.332;9.404;2023-04-05T07:23:08;92747.41;;;2.33;52.97
65376;BME280;51976;47.332;9.404;2023-04-05T07:25:34;92757.69;;;2.81;52.07
65376;BME280;51976;47.332;9.404;2023-04-05T07:27:59;92761.94;;;2.94;51.54
65376;BME280;51976;47.332;9.404;2023-04-05T07:30:26;92757.25;;;3.01;52.11
65376;BME280;51976;47.332;9.404;2023-04-05T07:32:51;92762.59;;;2.72;52.23
65376;BME280;51976;47.332;9.404;2023-04-05T07:35:16;92753.38;;;2.52;52.94
65376;BME280;51976;47.332;9.404;2023-04-05T07:37:43;92744.19;;;2.99;52.32
65376;BME280;51976;47.332;9.404;2023-04-05T07:40:09;92757.09;;;3.69;50.79
65376;BME280;51976;47.332;9.404;2023-04-05T07:42:35;92750.56;;;3.94;49.82
65376;BME280;51976;47.332;9.404;2023-04-05T07:45:00;92754.09;;;2.76;51.59
65376;BME280;51976;47.332;9.404;2023-04-05T07:47:26;92754.91;;;2.76;51.94
65376;BME280;51976;47.332;9.404;2023-04-05T07:49:51;92757.41;;;3.23;51.03
65376;BME280;51976;47.332;9.404;2023-04-05T07:52:16;92755.38;;;3.30;50.67
65376;BME280;51976;47.332;9.404;2023-04-05T07:54:42;92702.03;;;3.42;49.94
65376;BME280;51976;47.332;9.404;2023-04-05T07:57:08;92750.28;;;4.12;49.02
65376;BME280;51976;47.332;9.404;2023-04-05T07:59:34;92757.28;;;4.35;48.63
65376;BME280;51976;47.332;9.404;2023-04-05T08:02:00;92762.75;;;4.67;48.19
65376;BME280;51976;47.332;9.404;2023-04-05T08:04:25;92761.94;;;4.66;47.82
65376;BME280;51976;47.332;9.404;2023-04-05T08:06:51;92728.00;;;3.85;48.32
65376;BME280;51976;47.332;9.404;2023-04-05T08:09:16;92765.00;;;3.64;49.63
65376;BME280;51976;47.332;9.404;2023-04-05T08:11:42;92749.09;;;4.41;48.47
65376;BME280;51976;47.332;9.404;2023-04-05T08:14:07;92754.97;;;3.21;49.62
65376;BME280;51976;47.332;9.404;2023-04-05T08:16:33;92769.78;;;3.46;49.70
65376;BME280;51976;47.332;9.404;2023-04-05T08:18:58;92761.47;;;3.92;49.57
65376;BME280;51976;47.332;9.404;2023-04-05T08:21:24;92754.31;;;4.75;48.43
65376;BME280;51976;47.332;9.404;2023-04-05T08:23:50;92758.28;;;4.12;49.14
65376;BME280;51976;47.332;9.404;2023-04-05T08:26:19;92759.19;;;4.39;49.07
65376;BME280;51976;47.332;9.404;2023-04-05T08:28:44;92762.31;;;4.31;49.27
65376;BME280;51976;47.332;9.404;2023-04-05T08:31:10;92748.31;;;3.69;49.02
65376;BME280;51976;47.332;9.404;2023-04-05T08:33:36;92762.63;;;4.18;48.47
65376;BME280;51976;47.332;9.404;2023-04-05T08:36:08;92767.03;;;3.91;48.55
65376;BME280;51976;47.332;9.404;2023-04-05T08:38:34;92755.88;;;3.44;50.41
65376;BME280;51976;47.332;9.404;2023-04-05T08:41:16;92754.91;;;3.83;48.87
65376;BME280;51976;47.332;9.404;2023-04-05T08:44:00;92767.50;;;3.37;50.15
65376;BME280;51976;47.332;9.404;2023-04-05T08:46:29;92763.06;;;3.60;48.05
65376;BME280;51976;47.332;9.404;2023-04-05T08:48:56;92762.53;;;3.74;48.57
65376;BME280;51976;47.332;9.404;2023-04-05T08:51:23;92765.59;;;4.00;49.75
65376;BME280;51976;47.332;9.404;2023-04-05T08:53:49;92760.25;;;3.50;51.46
65376;BME280;51976;47.332;9.404;2023-04-05T08:56:19;92770.75;;;3.56;50.94
65376;BME280;51976;47.332;9.404;2023-04-05T08:58:52;92768.34;;;3.55;50.21
65376;BME280;51976;47.332;9.404;2023-04-05T09:01:22;92763.94;;;3.32;51.15
65376;BME280;51976;47.332;9.404;2023-04-05T09:03:49;92711.56;;;2.92;51.02
65376;BME280;51976;47.332;9.404;2023-04-05T09:06:17;92757.06;;;3.19;51.45
65376;BME280;51976;47.332;9.404;2023-04-05T09:08:45;92761.22;;;3.60;49.96
65376;BME280;51976;47.332;9.404;2023-04-05T09:11:11;92772.47;;;3.17;50.02
65376;BME280;51976;47.332;9.404;2023-04-05T09:13:37;92770.09;;;3.66;49.03
65376;BME280;51976;47.332;9.404;2023-04-05T09:16:02;92761.69;;;3.57;49.03
65376;BME280;51976;47.332;9.404;2023-04-05T09:18:28;92775.69;;;3.48;48.48
65376;BME280;51976;47.332;9.404;2023-04-05T09:21:03;92745.78;;;3.96;47.85
65376;BME280;51976;47.332;9.404;2023-04-05T09:23:29;92775.63;;;3.76;47.79
65376;BME280;51976;47.332;9.404;2023-04-05T09:25:55;92774.97;;;3.69;47.80
65376;BME280;51976;47.332;9.404;2023-04-05T09:28:20;92773.75;;;3.77;48.85
65376;BME280;51976;47.332;9.404;2023-04-05T09:30:46;92764.78;;;3.99;48.01
65376;BME280;51976;47.332;9.404;2023-04-05T09:33:15;92774.31;;;3.95;47.90
65376;BME280;51976;47.332;9.404;2023-04-05T09:35:43;92777.91;;;3.39;48.23
65376;BME280;51976;47.332;9.404;2023-04-05T09:38:08;92771.66;;;3.79;47.05
65376;BME280;51976;47.332;9.404;2023-04-05T09:40:46;92773.59;;;3.66;47.50
65376;BME280;51976;47.332;9.404;2023-04-05T09:43:34;92774.09;;;3.35;48.46
65376;BME280;51976;47.332;9.404;2023-04-05T09:45:59;92782.66;;;3.37;48.71
65376;BME280;51976;47.332;9.404;2023-04-05T09:48:47;92782.38;;;3.84;47.72
65376;BME280;51976;47.332;9.404;2023-04-05T09:51:14;92778.34;;;3.48;49.31
65376;BME280;51976;47.332;9.404;2023-04-05T09:54:06;92779.19;;;3.82;48.67
65376;BME280;51976;47.332;9.404;2023-04-05T09:56:34;92780.69;;;3.61;48.65
65376;BME280;51976;47.332;9.404;2023-04-05T09:59:07;92780.44;;;3.62;48.25
65376;BME280;51976;47.332;9.404;2023-04-05T10:01:35;92786.91;;;3.83;47.28
65376;BME280;51976;47.332;9.404;2023-04-05T10:04:01;92784.00;;;3.85;48.44
65376;BME280;51976;47.332;9.404;2023-04-05T10:06:40;92778.28;;;3.93;48.63
65376;BME280;51976;47.332;9.404;2023-04-05T10:09:07;92714.41;;;4.03;48.11
65376;BME280;51976;47.332;9.404;2023-04-05T10:11:33;92785.84;;;4.18;48.12
65376;BME280;51976;47.332;9.404;2023-04-05T10:14:00;92783.47;;;3.83;49.87
65376;BME280;51976;47.332;9.404;2023-04-05T10:16:30;92800.41;;;3.77;50.11
65376;BME280;51976;47.332;9.404;2023-04-05T10:18:56;92790.94;;;3.86;49.77
65376;BME280;51976;47.332;9.404;2023-04-05T10:21:23;92787.38;;;4.30;50.11
65376;BME280;51976;47.332;9.404;2023-04-05T10:23:58;92786.28;;;3.76;51.20
65376;BME280;51976;47.332;9.404;2023-04-05T10:26:39;92753.63;;;3.52;51.11
65376;BME280;51976;47.332;9.404;2023-04-05T10:29:22;92802.59;;;3.96;51.29
65376;BME280;51976;47.332;9.404;2023-04-05T10:31:54;92776.09;;;3.73;51.52
65376;BME280;51976;47.332;9.404;2023-04-05T10:34:31;92795.31;;;3.92;51.56
65376;BME280;51976;47.332;9.404;2023-04-05T10:37:01;92806.25;;;4.07;50.94
65376;BME280;51976;47.332;9.404;2023-04-05T10:39:44;92784.97;;;4.51;50.09
65376;BME280;51976;47.332;9.404;2023-04-05T10:42:20;92796.03;;;4.37;50.24
65376;BME280;51976;47.332;9.404;2023-04-05T10:44:50;92803.72;;;4.17;50.49
65376;BME280;51976;47.332;9.404;2023-04-05T10:47:18;92765.75;;;4.10;50.24
65376;BME280;51976;47.332;9.404;2023-04-05T10:49:48;92811.56;;;4.07;50.29
65376;BME280;51976;47.332;9.404;2023-04-05T10:52:15;92716.31;;;3.69;50.53
65376;BME280;51976;47.332;9.404;2023-04-05T10:54:42;92810.78;;;4.06;50.62
65376;BME280;51976;47.332;9.404;2023-04-05T10:57:09;92814.25;;;4.07;50.20
65376;BME280;51976;47.332;9.404;2023-04-05T10:59:35;92807.56;;;4.43;49.23
65376;BME280;51976;47.332;9.404;2023-04-05T11:02:05;92798.03;;;4.69;49.10
65376;BME280;51976;47.332;9.404;2023-04-05T11:04:32;92798.63;;;4.32;49.81
65376;BME280;51976;47.332;9.404;2023-04-05T11:07:11;92802.78;;;4.45;50.43
65376;BME280;51976;47.332;9.404;2023-04-05T11:09:37;92795.81;;;4.61;49.37
65376;BME280;51976;47.332;9.404;2023-04-05T11:12:04;92808.38;;;4.82;48.60
65376;BME280;51976;47.332;9.404;2023-04-05T11:14:35;92704.66;;;3.92;48.50
65376;BME280;51976;47.332;9.404;2023-04-05T11:17:02;92804.88;;;4.82;48.90
65376;BME280;51976;47.332;9.404;2023-04-05T11:19:47;92807.38;;;4.50;48.37
65376;BME280;51976;47.332;9.404;2023-04-05T11:22:24;92798.66;;;4.76;47.61
65376;BME280;51976;47.332;9.404;2023-04-05T11:24:52;92792.94;;;5.11;47.24
65376;BME280;51976;47.332;9.404;2023-04-05T11:27:29;92788.19;;;4.91;47.79
65376;BME280;51976;47.332;9.404;2023-04-05T11:29:56;92794.25;;;5.08;47.87
65376;BME280;51976;47.332;9.404;2023-04-05T11:32:22;92718.75;;;4.48;47.57
65376;BME280;51976;47.332;9.404;2023-04-05T11:34:58;92795.25;;;4.42;47.38
65376;BME280;51976;47.332;9.404;2023-04-05T11:37:53;92787.78;;;4.61;47.58
65376;BME280;51976;47.332;9.404;2023-04-05T11:40:27;92801.47;;;4.64;47.63
65376;BME280;51976;47.332;9.404;2023-04-05T11:43:04;92795.81;;;4.61;48.55
65376;BME280;51976;47.332;9.404;2023-04-05T11:45:30;92783.50;;;4.82;48.18
65376;BME280;51976;47.332;9.404;2023-04-05T11:47:56;92785.53;;;4.53;48.57
65376;BME280;51976;47.332;9.404;2023-04-05T11:50:22;92782.06;;;4.74;48.55
65376;BME280;51976;47.332;9.404;2023-04-05T11:53:12;92783.34;;;4.88;48.61
65376;BME280;51976;47.332;9.404;2023-04-05T11:55:44;92774.13;;;4.79;47.83
65376;BME280;51976;47.332;9.404;2023-04-05T11:58:20;92776.50;;;4.75;47.76
65376;BME280;51976;47.332;9.404;2023-04-05T12:00:56;92766.84;;;4.96;47.06
65376;BME280;51976;47.332;9.404;2023-04-05T12:03:22;92772.50;;;5.00;46.66
65376;BME280;51976;47.332;9.404;2023-04-05T12:05:52;92767.50;;;4.82;47.87
65376;BME280;51976;47.332;9.404;2023-04-05T12:08:18;92764.38;;;5.12;47.89
65376;BME280;51976;47.332;9.404;2023-04-05T12:10:56;92766.69;;;4.81;47.75
65376;BME280;51976;47.332;9.404;2023-04-05T12:13:26;92747.06;;;4.92;47.24
65376;BME280;51976;47.332;9.404;2023-04-05T12:15:52;92759.66;;;4.97;47.78
65376;BME280;51976;47.332;9.404;2023-04-05T12:18:18;92763.94;;;4.98;47.13
65376;BME280;51976;47.332;9.404;2023-04-05T12:20:44;92744.59;;;5.66;45.87
65376;BME280;51976;47.332;9.404;2023-04-05T12:23:10;92759.84;;;5.39;46.52
65376;BME280;51976;47.332;9.404;2023-04-05T12:25:35;92752.50;;;5.02;47.20
65376;BME280;51976;47.332;9.404;2023-04-05T12:28:06;92763.69;;;4.56;47.84
65376;BME280;51976;47.332;9.404;2023-04-05T12:30:33;92766.66;;;5.03;46.95
65376;BME280;51976;47.332;9.404;2023-04-05T12:33:07;92756.91;;;5.40;46.91
65376;BME280;51976;47.332;9.404;2023-04-05T12:35:35;92761.63;;;5.06;46.69
65376;BME280;51976;47.332;9.404;2023-04-05T12:38:04;92754.25;;;5.14;46.51
65376;BME280;51976;47.332;9.404;2023-04-05T12:40:33;92755.63;;;5.21;46.72
65376;BME280;51976;47.332;9.404;2023-04-05T12:43:01;92758.47;;;5.09;46.65
65376;BME280;51976;47.332;9.404;2023-04-05T12:45:27;92755.44;;;5.28;47.10
65376;BME280;51976;47.332;9.404;2023-04-05T12:47:57;92751.41;;;5.25;45.95
65376;BME280;51976;47.332;9.404;2023-04-05T12:50:26;92742.50;;;4.93;45.61
65376;BME280;51976;47.332;9.404;2023-04-05T12:52:59;92748.72;;;5.25;45.48
65376;BME280;51976;47.332;9.404;2023-04-05T12:55:26;92751.63;;;5.46;45.79
65376;BME280;51976;47.332;9.404;2023-04-05T12:57:59;92747.03;;;5.41;45.81
65376;BME280;51976;47.332;9.404;2023-04-05T13:00:27;92746.56;;;5.22;45.37
65376;BME280;51976;47.332;9.404;2023-04-05T13:02:56;92739.44;;;5.60;45.78
65376;BME280;51976;47.332;9.404;2023-04-05T13:05:26;92737.03;;;5.31;45.70
65376;BME280;51976;47.332;9.404;2023-04-05T13:07:51;92743.56;;;5.14;45.82
65376;BME280;51976;47.332;9.404;2023-04-05T13:10:18;92737.44;;;5.45;45.11